<?xml version="1.0" encoding="UTF-8" standalone="no" ?>
<gpx xmlns="http://www.topografix.com/GPX/1/1" xmlns:xsi="http://www.w3.org/2001/XMLSchema-instance" xsi:schemaLocation="http://www.topografix.com/GPX/1/1 http://www.topografix.com/GPX/1/1/gpx.xsd" version="1.1" creator="VisuGPX - https://www.visugpx.com">
  <metadata>
    <name>Chapelle de Dromon</name>
    <desc><![CDATA[Test RECO]]></desc>
  </metadata>
  <trk>
    <name><![CDATA[2024-11-03 15:55:07]]></name>
    <extensions>
      <line xmlns="http://www.topografix.com/GPX/gpx_style/0/2">
        <color>ff0000</color>
        <opacity>1</opacity>
        <width>4</width>
      </line>
    </extensions>
    <trkseg>
      <trkpt lat="44.2386" lon="6.07841">
        <ele>1149.2</ele>
        <time>2024-11-03T14:15:00.000Z</time>
      </trkpt>
      <trkpt lat="44.2386" lon="6.07838">
        <ele>1149.5</ele>
        <time>2024-11-03T14:15:07.274Z</time>
      </trkpt>
      <trkpt lat="44.23861" lon="6.07831">
        <ele>1150.1</ele>
        <time>2024-11-03T14:15:23.243Z</time>
      </trkpt>
      <trkpt lat="44.23862" lon="6.07824">
        <ele>1150.2</ele>
        <time>2024-11-03T14:15:34.747Z</time>
      </trkpt>
      <trkpt lat="44.23861" lon="6.07818">
        <ele>1150.6</ele>
        <time>2024-11-03T14:15:47.298Z</time>
      </trkpt>
      <trkpt lat="44.23861" lon="6.07811">
        <ele>1150.8</ele>
        <time>2024-11-03T14:15:59.336Z</time>
      </trkpt>
      <trkpt lat="44.23858" lon="6.07807">
        <ele>1151.4</ele>
        <time>2024-11-03T14:16:13.639Z</time>
      </trkpt>
      <trkpt lat="44.23854" lon="6.07803">
        <ele>1152.1</ele>
        <time>2024-11-03T14:16:30.455Z</time>
      </trkpt>
      <trkpt lat="44.23846" lon="6.07802">
        <ele>1153.4</ele>
        <time>2024-11-03T14:16:59.978Z</time>
      </trkpt>
      <trkpt lat="44.23841" lon="6.07801">
        <ele>1154.2</ele>
        <time>2024-11-03T14:17:18.303Z</time>
      </trkpt>
      <trkpt lat="44.23836" lon="6.078">
        <ele>1155</ele>
        <time>2024-11-03T14:17:36.629Z</time>
      </trkpt>
      <trkpt lat="44.23828" lon="6.07797">
        <ele>1155.7</ele>
        <time>2024-11-03T14:17:59.696Z</time>
      </trkpt>
      <trkpt lat="44.23825" lon="6.07792">
        <ele>1156.4</ele>
        <time>2024-11-03T14:18:16.116Z</time>
      </trkpt>
      <trkpt lat="44.23822" lon="6.07787">
        <ele>1157.3</ele>
        <time>2024-11-03T14:18:35.432Z</time>
      </trkpt>
      <trkpt lat="44.23817" lon="6.07785">
        <ele>1158.1</ele>
        <time>2024-11-03T14:18:53.984Z</time>
      </trkpt>
      <trkpt lat="44.23813" lon="6.07784">
        <ele>1158.7</ele>
        <time>2024-11-03T14:19:08.150Z</time>
      </trkpt>
      <trkpt lat="44.23809" lon="6.07781">
        <ele>1159.8</ele>
        <time>2024-11-03T14:19:31.022Z</time>
      </trkpt>
      <trkpt lat="44.23805" lon="6.07778">
        <ele>1161</ele>
        <time>2024-11-03T14:19:56.054Z</time>
      </trkpt>
      <trkpt lat="44.23797" lon="6.07773">
        <ele>1161.8</ele>
        <time>2024-11-03T14:20:21.036Z</time>
      </trkpt>
      <trkpt lat="44.23793" lon="6.0777">
        <ele>1162.4</ele>
        <time>2024-11-03T14:20:35.992Z</time>
      </trkpt>
      <trkpt lat="44.23789" lon="6.07767">
        <ele>1163.1</ele>
        <time>2024-11-03T14:20:52.209Z</time>
      </trkpt>
      <trkpt lat="44.23786" lon="6.07763">
        <ele>1163.9</ele>
        <time>2024-11-03T14:21:09.375Z</time>
      </trkpt>
      <trkpt lat="44.23782" lon="6.07758">
        <ele>1165.1</ele>
        <time>2024-11-03T14:21:34.448Z</time>
      </trkpt>
      <trkpt lat="44.23775" lon="6.07751">
        <ele>1167.3</ele>
        <time>2024-11-03T14:22:20.233Z</time>
      </trkpt>
      <trkpt lat="44.23771" lon="6.07747">
        <ele>1168.4</ele>
        <time>2024-11-03T14:22:43.216Z</time>
      </trkpt>
      <trkpt lat="44.23767" lon="6.07743">
        <ele>1169.4</ele>
        <time>2024-11-03T14:23:04.420Z</time>
      </trkpt>
      <trkpt lat="44.23764" lon="6.07739">
        <ele>1170.3</ele>
        <time>2024-11-03T14:23:23.293Z</time>
      </trkpt>
      <trkpt lat="44.23757" lon="6.07732">
        <ele>1172</ele>
        <time>2024-11-03T14:23:59.565Z</time>
      </trkpt>
      <trkpt lat="44.23754" lon="6.07728">
        <ele>1172.9</ele>
        <time>2024-11-03T14:24:18.438Z</time>
      </trkpt>
      <trkpt lat="44.2375" lon="6.07724">
        <ele>1173.9</ele>
        <time>2024-11-03T14:24:39.641Z</time>
      </trkpt>
      <trkpt lat="44.23746" lon="6.0772">
        <ele>1174.8</ele>
        <time>2024-11-03T14:24:59.234Z</time>
      </trkpt>
      <trkpt lat="44.23742" lon="6.07716">
        <ele>1175.7</ele>
        <time>2024-11-03T14:25:18.827Z</time>
      </trkpt>
      <trkpt lat="44.23736" lon="6.07708">
        <ele>1177.3</ele>
        <time>2024-11-03T14:25:53.159Z</time>
      </trkpt>
      <trkpt lat="44.23731" lon="6.07705">
        <ele>1178.5</ele>
        <time>2024-11-03T14:26:18.270Z</time>
      </trkpt>
      <trkpt lat="44.23727" lon="6.07702">
        <ele>1179.5</ele>
        <time>2024-11-03T14:26:39.200Z</time>
      </trkpt>
      <trkpt lat="44.23722" lon="6.07699">
        <ele>1180.7</ele>
        <time>2024-11-03T14:27:04.312Z</time>
      </trkpt>
      <trkpt lat="44.23717" lon="6.07697">
        <ele>1181.6</ele>
        <time>2024-11-03T14:27:24.255Z</time>
      </trkpt>
      <trkpt lat="44.23712" lon="6.07695">
        <ele>1182.4</ele>
        <time>2024-11-03T14:27:42.806Z</time>
      </trkpt>
      <trkpt lat="44.23706" lon="6.07693">
        <ele>1183.3</ele>
        <time>2024-11-03T14:28:04.172Z</time>
      </trkpt>
      <trkpt lat="44.23699" lon="6.07698">
        <ele>1184.3</ele>
        <time>2024-11-03T14:28:29.610Z</time>
      </trkpt>
      <trkpt lat="44.23695" lon="6.07701">
        <ele>1184.9</ele>
        <time>2024-11-03T14:28:44.566Z</time>
      </trkpt>
      <trkpt lat="44.23691" lon="6.07704">
        <ele>1185.6</ele>
        <time>2024-11-03T14:29:00.783Z</time>
      </trkpt>
      <trkpt lat="44.23687" lon="6.07707">
        <ele>1186.3</ele>
        <time>2024-11-03T14:29:17.000Z</time>
      </trkpt>
      <trkpt lat="44.23683" lon="6.0771">
        <ele>1187.1</ele>
        <time>2024-11-03T14:29:34.620Z</time>
      </trkpt>
      <trkpt lat="44.23679" lon="6.07712">
        <ele>1187.8</ele>
        <time>2024-11-03T14:29:50.409Z</time>
      </trkpt>
      <trkpt lat="44.23675" lon="6.07714">
        <ele>1188.5</ele>
        <time>2024-11-03T14:30:06.197Z</time>
      </trkpt>
      <trkpt lat="44.23668" lon="6.07719">
        <ele>1189.8</ele>
        <time>2024-11-03T14:30:35.479Z</time>
      </trkpt>
      <trkpt lat="44.23665" lon="6.07723">
        <ele>1190.1</ele>
        <time>2024-11-03T14:30:46.564Z</time>
      </trkpt>
      <trkpt lat="44.23661" lon="6.07727">
        <ele>1190.2</ele>
        <time>2024-11-03T14:30:57.660Z</time>
      </trkpt>
      <trkpt lat="44.23662" lon="6.07733">
        <ele>1189.3</ele>
        <time>2024-11-03T14:31:05.834Z</time>
      </trkpt>
      <trkpt lat="44.23667" lon="6.07733">
        <ele>1188.4</ele>
        <time>2024-11-03T14:31:15.093Z</time>
      </trkpt>
      <trkpt lat="44.23671" lon="6.07733">
        <ele>1187.7</ele>
        <time>2024-11-03T14:31:22.501Z</time>
      </trkpt>
      <trkpt lat="44.23679" lon="6.07734">
        <ele>1186.1</ele>
        <time>2024-11-03T14:31:37.376Z</time>
      </trkpt>
      <trkpt lat="44.23675" lon="6.07734">
        <ele>1186.8</ele>
        <time>2024-11-03T14:31:52.828Z</time>
      </trkpt>
      <trkpt lat="44.2367" lon="6.07734">
        <ele>1187.7</ele>
        <time>2024-11-03T14:32:12.516Z</time>
      </trkpt>
      <trkpt lat="44.23666" lon="6.07732">
        <ele>1188.7</ele>
        <time>2024-11-03T14:32:33.328Z</time>
      </trkpt>
      <trkpt lat="44.23661" lon="6.0773">
        <ele>1189.9</ele>
        <time>2024-11-03T14:32:58.332Z</time>
      </trkpt>
      <trkpt lat="44.23657" lon="6.07731">
        <ele>1190.5</ele>
        <time>2024-11-03T14:33:12.498Z</time>
      </trkpt>
      <trkpt lat="44.23652" lon="6.07731">
        <ele>1191.3</ele>
        <time>2024-11-03T14:33:30.749Z</time>
      </trkpt>
      <trkpt lat="44.23648" lon="6.07735">
        <ele>1191.8</ele>
        <time>2024-11-03T14:33:45.286Z</time>
      </trkpt>
      <trkpt lat="44.23644" lon="6.07739">
        <ele>1192.3</ele>
        <time>2024-11-03T14:33:59.824Z</time>
      </trkpt>
      <trkpt lat="44.2364" lon="6.07743">
        <ele>1193</ele>
        <time>2024-11-03T14:34:16.640Z</time>
      </trkpt>
      <trkpt lat="44.23635" lon="6.07748">
        <ele>1193.8</ele>
        <time>2024-11-03T14:34:36.747Z</time>
      </trkpt>
      <trkpt lat="44.23631" lon="6.07753">
        <ele>1194</ele>
        <time>2024-11-03T14:34:49.527Z</time>
      </trkpt>
      <trkpt lat="44.23627" lon="6.07758">
        <ele>1194.1</ele>
        <time>2024-11-03T14:35:01.571Z</time>
      </trkpt>
      <trkpt lat="44.23623" lon="6.07762">
        <ele>1194.4</ele>
        <time>2024-11-03T14:35:14.228Z</time>
      </trkpt>
      <trkpt lat="44.23618" lon="6.07766">
        <ele>1194.9</ele>
        <time>2024-11-03T14:35:30.401Z</time>
      </trkpt>
      <trkpt lat="44.23614" lon="6.0777">
        <ele>1195.2</ele>
        <time>2024-11-03T14:35:43.058Z</time>
      </trkpt>
      <trkpt lat="44.2361" lon="6.07773">
        <ele>1195.6</ele>
        <time>2024-11-03T14:35:55.859Z</time>
      </trkpt>
      <trkpt lat="44.23602" lon="6.07777">
        <ele>1195.8</ele>
        <time>2024-11-03T14:36:15.217Z</time>
      </trkpt>
      <trkpt lat="44.23597" lon="6.07777">
        <ele>1196.1</ele>
        <time>2024-11-03T14:36:28.037Z</time>
      </trkpt>
      <trkpt lat="44.23592" lon="6.07777">
        <ele>1196.5</ele>
        <time>2024-11-03T14:36:41.748Z</time>
      </trkpt>
      <trkpt lat="44.23587" lon="6.07778">
        <ele>1196.7</ele>
        <time>2024-11-03T14:36:53.861Z</time>
      </trkpt>
      <trkpt lat="44.23582" lon="6.07779">
        <ele>1197.1</ele>
        <time>2024-11-03T14:37:07.674Z</time>
      </trkpt>
      <trkpt lat="44.23578" lon="6.07779">
        <ele>1197.8</ele>
        <time>2024-11-03T14:37:23.126Z</time>
      </trkpt>
      <trkpt lat="44.23573" lon="6.07779">
        <ele>1198.8</ele>
        <time>2024-11-03T14:37:44.401Z</time>
      </trkpt>
      <trkpt lat="44.23568" lon="6.07779">
        <ele>1199.7</ele>
        <time>2024-11-03T14:38:04.089Z</time>
      </trkpt>
      <trkpt lat="44.23563" lon="6.07779">
        <ele>1200.6</ele>
        <time>2024-11-03T14:38:23.778Z</time>
      </trkpt>
      <trkpt lat="44.23559" lon="6.07783">
        <ele>1201.1</ele>
        <time>2024-11-03T14:38:38.315Z</time>
      </trkpt>
      <trkpt lat="44.23555" lon="6.07787">
        <ele>1201.7</ele>
        <time>2024-11-03T14:38:53.937Z</time>
      </trkpt>
      <trkpt lat="44.23549" lon="6.07786">
        <ele>1201.8</ele>
        <time>2024-11-03T14:39:07.401Z</time>
      </trkpt>
      <trkpt lat="44.23544" lon="6.07787">
        <ele>1201.9</ele>
        <time>2024-11-03T14:39:18.772Z</time>
      </trkpt>
      <trkpt lat="44.23539" lon="6.07788">
        <ele>1202.1</ele>
        <time>2024-11-03T14:39:30.886Z</time>
      </trkpt>
      <trkpt lat="44.23535" lon="6.07785">
        <ele>1202.1</ele>
        <time>2024-11-03T14:39:40.497Z</time>
      </trkpt>
      <trkpt lat="44.23531" lon="6.07782">
        <ele>1202.1</ele>
        <time>2024-11-03T14:39:50.108Z</time>
      </trkpt>
      <trkpt lat="44.23526" lon="6.07779">
        <ele>1201.9</ele>
        <time>2024-11-03T14:40:00.421Z</time>
      </trkpt>
      <trkpt lat="44.23522" lon="6.07776">
        <ele>1201.9</ele>
        <time>2024-11-03T14:40:10.032Z</time>
      </trkpt>
      <trkpt lat="44.23516" lon="6.07775">
        <ele>1201.6</ele>
        <time>2024-11-03T14:40:21.222Z</time>
      </trkpt>
      <trkpt lat="44.23511" lon="6.07773">
        <ele>1201.5</ele>
        <time>2024-11-03T14:40:31.605Z</time>
      </trkpt>
      <trkpt lat="44.23503" lon="6.07772">
        <ele>1200.9</ele>
        <time>2024-11-03T14:40:46.480Z</time>
      </trkpt>
      <trkpt lat="44.23498" lon="6.07772">
        <ele>1200.3</ele>
        <time>2024-11-03T14:40:55.740Z</time>
      </trkpt>
      <trkpt lat="44.23493" lon="6.07772">
        <ele>1199.6</ele>
        <time>2024-11-03T14:41:05.000Z</time>
      </trkpt>
      <trkpt lat="44.23487" lon="6.07773">
        <ele>1198.6</ele>
        <time>2024-11-03T14:41:16.190Z</time>
      </trkpt>
      <trkpt lat="44.23482" lon="6.07775">
        <ele>1197.7</ele>
        <time>2024-11-03T14:41:25.823Z</time>
      </trkpt>
      <trkpt lat="44.23476" lon="6.07774">
        <ele>1197</ele>
        <time>2024-11-03T14:41:37.014Z</time>
      </trkpt>
      <trkpt lat="44.2347" lon="6.07774">
        <ele>1196.3</ele>
        <time>2024-11-03T14:41:48.125Z</time>
      </trkpt>
      <trkpt lat="44.23465" lon="6.0777">
        <ele>1196.3</ele>
        <time>2024-11-03T14:42:00.323Z</time>
      </trkpt>
      <trkpt lat="44.23461" lon="6.07767">
        <ele>1196.1</ele>
        <time>2024-11-03T14:42:08.746Z</time>
      </trkpt>
      <trkpt lat="44.23457" lon="6.07764">
        <ele>1195.9</ele>
        <time>2024-11-03T14:42:17.169Z</time>
      </trkpt>
      <trkpt lat="44.23453" lon="6.0776">
        <ele>1195.5</ele>
        <time>2024-11-03T14:42:26.281Z</time>
      </trkpt>
      <trkpt lat="44.23453" lon="6.07755">
        <ele>1195.5</ele>
        <time>2024-11-03T14:42:33.864Z</time>
      </trkpt>
      <trkpt lat="44.23447" lon="6.07747">
        <ele>1194.8</ele>
        <time>2024-11-03T14:42:49.231Z</time>
      </trkpt>
      <trkpt lat="44.23443" lon="6.07746">
        <ele>1194.3</ele>
        <time>2024-11-03T14:42:56.757Z</time>
      </trkpt>
      <trkpt lat="44.23438" lon="6.07744">
        <ele>1194.1</ele>
        <time>2024-11-03T14:43:06.564Z</time>
      </trkpt>
      <trkpt lat="44.23434" lon="6.07741">
        <ele>1194</ele>
        <time>2024-11-03T14:43:15.553Z</time>
      </trkpt>
      <trkpt lat="44.23429" lon="6.07739">
        <ele>1193.6</ele>
        <time>2024-11-03T14:43:25.185Z</time>
      </trkpt>
      <trkpt lat="44.23424" lon="6.07739">
        <ele>1193.1</ele>
        <time>2024-11-03T14:43:34.445Z</time>
      </trkpt>
      <trkpt lat="44.23419" lon="6.0774">
        <ele>1192.6</ele>
        <time>2024-11-03T14:43:43.799Z</time>
      </trkpt>
      <trkpt lat="44.23412" lon="6.07738">
        <ele>1192.9</ele>
        <time>2024-11-03T14:44:01.068Z</time>
      </trkpt>
      <trkpt lat="44.23405" lon="6.07736">
        <ele>1193.3</ele>
        <time>2024-11-03T14:44:19.146Z</time>
      </trkpt>
      <trkpt lat="44.23401" lon="6.07732">
        <ele>1193.1</ele>
        <time>2024-11-03T14:44:28.364Z</time>
      </trkpt>
      <trkpt lat="44.23397" lon="6.07728">
        <ele>1192.6</ele>
        <time>2024-11-03T14:44:37.477Z</time>
      </trkpt>
      <trkpt lat="44.23394" lon="6.07722">
        <ele>1191.4</ele>
        <time>2024-11-03T14:44:47.186Z</time>
      </trkpt>
      <trkpt lat="44.23394" lon="6.07725">
        <ele>1191.9</ele>
        <time>2024-11-03T14:44:57.598Z</time>
      </trkpt>
      <trkpt lat="44.23394" lon="6.07723">
        <ele>1191.5</ele>
        <time>2024-11-03T14:45:00.252Z</time>
      </trkpt>
      <trkpt lat="44.23392" lon="6.07725">
        <ele>1191.8</ele>
        <time>2024-11-03T14:45:08.063Z</time>
      </trkpt>
      <trkpt lat="44.23393" lon="6.07723">
        <ele>1191.5</ele>
        <time>2024-11-03T14:45:11.299Z</time>
      </trkpt>
      <trkpt lat="44.2339" lon="6.07724">
        <ele>1191.5</ele>
        <time>2024-11-03T14:45:17.827Z</time>
      </trkpt>
      <trkpt lat="44.23394" lon="6.07725">
        <ele>1191.9</ele>
        <time>2024-11-03T14:45:29.700Z</time>
      </trkpt>
      <trkpt lat="44.23394" lon="6.07728">
        <ele>1192.5</ele>
        <time>2024-11-03T14:45:42.302Z</time>
      </trkpt>
      <trkpt lat="44.23391" lon="6.07724">
        <ele>1191.6</ele>
        <time>2024-11-03T14:45:49.986Z</time>
      </trkpt>
      <trkpt lat="44.23393" lon="6.07724">
        <ele>1191.7</ele>
        <time>2024-11-03T14:45:54.947Z</time>
      </trkpt>
      <trkpt lat="44.23389" lon="6.07718">
        <ele>1191.2</ele>
        <time>2024-11-03T14:46:05.822Z</time>
      </trkpt>
      <trkpt lat="44.2339" lon="6.07722">
        <ele>1191.1</ele>
        <time>2024-11-03T14:46:11.639Z</time>
      </trkpt>
      <trkpt lat="44.23385" lon="6.07728">
        <ele>1192.1</ele>
        <time>2024-11-03T14:46:34.970Z</time>
      </trkpt>
      <trkpt lat="44.2338" lon="6.07733">
        <ele>1192.6</ele>
        <time>2024-11-03T14:46:51.911Z</time>
      </trkpt>
      <trkpt lat="44.23377" lon="6.07737">
        <ele>1193</ele>
        <time>2024-11-03T14:47:03.949Z</time>
      </trkpt>
      <trkpt lat="44.23373" lon="6.07741">
        <ele>1193</ele>
        <time>2024-11-03T14:47:14.363Z</time>
      </trkpt>
      <trkpt lat="44.2337" lon="6.07746">
        <ele>1193.3</ele>
        <time>2024-11-03T14:47:26.513Z</time>
      </trkpt>
      <trkpt lat="44.23366" lon="6.0775">
        <ele>1193.1</ele>
        <time>2024-11-03T14:47:35.731Z</time>
      </trkpt>
      <trkpt lat="44.23362" lon="6.07753">
        <ele>1192.4</ele>
        <time>2024-11-03T14:47:44.141Z</time>
      </trkpt>
      <trkpt lat="44.23358" lon="6.07757">
        <ele>1190.9</ele>
        <time>2024-11-03T14:47:53.254Z</time>
      </trkpt>
      <trkpt lat="44.23364" lon="6.07752">
        <ele>1192.8</ele>
        <time>2024-11-03T14:48:33.010Z</time>
      </trkpt>
      <trkpt lat="44.23369" lon="6.07747">
        <ele>1193.3</ele>
        <time>2024-11-03T14:48:49.951Z</time>
      </trkpt>
      <trkpt lat="44.23374" lon="6.07743">
        <ele>1193.6</ele>
        <time>2024-11-03T14:49:04.345Z</time>
      </trkpt>
      <trkpt lat="44.23379" lon="6.0774">
        <ele>1193.9</ele>
        <time>2024-11-03T14:49:18.076Z</time>
      </trkpt>
      <trkpt lat="44.23381" lon="6.07738">
        <ele>1193.8</ele>
        <time>2024-11-03T14:49:22.685Z</time>
      </trkpt>
      <trkpt lat="44.23382" lon="6.07731">
        <ele>1192.4</ele>
        <time>2024-11-03T14:49:32.156Z</time>
      </trkpt>
      <trkpt lat="44.23382" lon="6.07724">
        <ele>1190.9</ele>
        <time>2024-11-03T14:49:41.445Z</time>
      </trkpt>
      <trkpt lat="44.23377" lon="6.0772">
        <ele>1190.2</ele>
        <time>2024-11-03T14:49:52.118Z</time>
        <extensions>
          <visugpx:TrkExtension xmlns:visugpx="https://www.visugpx.com/editgpx/">
            <visugpx:node>1</visugpx:node>
            </visugpx:TrkExtension>
        </extensions>
      </trkpt>
      <trkpt lat="44.23383" lon="6.07721">
        <ele>1190.6</ele>
        <time>2024-11-03T14:50:07.934Z</time>
      </trkpt>
      <trkpt lat="44.23389" lon="6.07722">
        <ele>1191</ele>
        <time>2024-11-03T14:50:23.750Z</time>
      </trkpt>
      <trkpt lat="44.23394" lon="6.07723">
        <ele>1191.5</ele>
        <time>2024-11-03T14:50:38.537Z</time>
      </trkpt>
      <trkpt lat="44.234" lon="6.07724">
        <ele>1192</ele>
        <time>2024-11-03T14:50:55.263Z</time>
      </trkpt>
      <trkpt lat="44.23406" lon="6.0773">
        <ele>1192.8</ele>
        <time>2024-11-03T14:51:17.594Z</time>
      </trkpt>
      <trkpt lat="44.23413" lon="6.07734">
        <ele>1192.8</ele>
        <time>2024-11-03T14:51:33.603Z</time>
      </trkpt>
      <trkpt lat="44.23421" lon="6.07738">
        <ele>1192.9</ele>
        <time>2024-11-03T14:51:52.257Z</time>
      </trkpt>
      <trkpt lat="44.23427" lon="6.07741">
        <ele>1193.3</ele>
        <time>2024-11-03T14:52:08.749Z</time>
      </trkpt>
      <trkpt lat="44.23432" lon="6.07744">
        <ele>1193.6</ele>
        <time>2024-11-03T14:52:22.480Z</time>
      </trkpt>
      <trkpt lat="44.23437" lon="6.07748">
        <ele>1193.6</ele>
        <time>2024-11-03T14:52:34.678Z</time>
      </trkpt>
      <trkpt lat="44.23441" lon="6.07752">
        <ele>1193.9</ele>
        <time>2024-11-03T14:52:47.335Z</time>
      </trkpt>
      <trkpt lat="44.23446" lon="6.07756">
        <ele>1194.4</ele>
        <time>2024-11-03T14:53:03.508Z</time>
      </trkpt>
      <trkpt lat="44.2345" lon="6.0776">
        <ele>1195.1</ele>
        <time>2024-11-03T14:53:20.325Z</time>
      </trkpt>
      <trkpt lat="44.23454" lon="6.07765">
        <ele>1195.5</ele>
        <time>2024-11-03T14:53:34.777Z</time>
      </trkpt>
      <trkpt lat="44.23458" lon="6.07769">
        <ele>1195.8</ele>
        <time>2024-11-03T14:53:47.434Z</time>
      </trkpt>
      <trkpt lat="44.23465" lon="6.0777">
        <ele>1196.3</ele>
        <time>2024-11-03T14:54:06.155Z</time>
      </trkpt>
      <trkpt lat="44.23472" lon="6.07771">
        <ele>1196.7</ele>
        <time>2024-11-03T14:54:24.009Z</time>
      </trkpt>
      <trkpt lat="44.23477" lon="6.07772">
        <ele>1197.3</ele>
        <time>2024-11-03T14:54:39.865Z</time>
      </trkpt>
      <trkpt lat="44.23482" lon="6.07773">
        <ele>1197.9</ele>
        <time>2024-11-03T14:54:55.721Z</time>
      </trkpt>
      <trkpt lat="44.23487" lon="6.07774">
        <ele>1198.5</ele>
        <time>2024-11-03T14:55:11.577Z</time>
      </trkpt>
      <trkpt lat="44.23492" lon="6.07775">
        <ele>1199.1</ele>
        <time>2024-11-03T14:55:27.433Z</time>
      </trkpt>
      <trkpt lat="44.235" lon="6.07775">
        <ele>1200.3</ele>
        <time>2024-11-03T14:55:55.565Z</time>
      </trkpt>
      <trkpt lat="44.23505" lon="6.07774">
        <ele>1200.8</ele>
        <time>2024-11-03T14:56:10.352Z</time>
      </trkpt>
      <trkpt lat="44.23509" lon="6.07773">
        <ele>1201.3</ele>
        <time>2024-11-03T14:56:23.304Z</time>
      </trkpt>
      <trkpt lat="44.23514" lon="6.07772">
        <ele>1201.9</ele>
        <time>2024-11-03T14:56:39.160Z</time>
      </trkpt>
      <trkpt lat="44.23518" lon="6.07771">
        <ele>1202.5</ele>
        <time>2024-11-03T14:56:53.327Z</time>
      </trkpt>
      <trkpt lat="44.23523" lon="6.07773">
        <ele>1202.6</ele>
        <time>2024-11-03T14:57:05.015Z</time>
      </trkpt>
      <trkpt lat="44.23528" lon="6.07775">
        <ele>1202.6</ele>
        <time>2024-11-03T14:57:16.023Z</time>
      </trkpt>
      <trkpt lat="44.23532" lon="6.07778">
        <ele>1202</ele>
        <time>2024-11-03T14:57:24.433Z</time>
      </trkpt>
      <trkpt lat="44.23536" lon="6.07781">
        <ele>1202</ele>
        <time>2024-11-03T14:57:34.044Z</time>
      </trkpt>
      <trkpt lat="44.23543" lon="6.07784">
        <ele>1202</ele>
        <time>2024-11-03T14:57:49.542Z</time>
      </trkpt>
      <trkpt lat="44.23548" lon="6.07784">
        <ele>1201.9</ele>
        <time>2024-11-03T14:57:59.500Z</time>
      </trkpt>
      <trkpt lat="44.23553" lon="6.07784">
        <ele>1201.8</ele>
        <time>2024-11-03T14:58:09.459Z</time>
      </trkpt>
      <trkpt lat="44.2356" lon="6.07778">
        <ele>1201.2</ele>
        <time>2024-11-03T14:58:24.672Z</time>
      </trkpt>
      <trkpt lat="44.23567" lon="6.07776">
        <ele>1200.3</ele>
        <time>2024-11-03T14:58:37.904Z</time>
      </trkpt>
      <trkpt lat="44.23574" lon="6.07776">
        <ele>1199</ele>
        <time>2024-11-03T14:58:50.868Z</time>
      </trkpt>
      <trkpt lat="44.23581" lon="6.07776">
        <ele>1197.7</ele>
        <time>2024-11-03T14:59:03.831Z</time>
      </trkpt>
      <trkpt lat="44.23588" lon="6.07778">
        <ele>1196.6</ele>
        <time>2024-11-03T14:59:17.064Z</time>
      </trkpt>
      <trkpt lat="44.23596" lon="6.07779">
        <ele>1195.9</ele>
        <time>2024-11-03T14:59:31.939Z</time>
      </trkpt>
      <trkpt lat="44.23603" lon="6.07781">
        <ele>1195.1</ele>
        <time>2024-11-03T14:59:45.171Z</time>
      </trkpt>
      <trkpt lat="44.2361" lon="6.07782">
        <ele>1194.3</ele>
        <time>2024-11-03T14:59:58.202Z</time>
      </trkpt>
      <trkpt lat="44.23614" lon="6.07773">
        <ele>1194.9</ele>
        <time>2024-11-03T15:00:19.903Z</time>
      </trkpt>
      <trkpt lat="44.23618" lon="6.07763">
        <ele>1195.2</ele>
        <time>2024-11-03T15:00:38.645Z</time>
      </trkpt>
      <trkpt lat="44.23623" lon="6.07758">
        <ele>1194.9</ele>
        <time>2024-11-03T15:00:50.036Z</time>
      </trkpt>
      <trkpt lat="44.23628" lon="6.07753">
        <ele>1194.6</ele>
        <time>2024-11-03T15:01:01.427Z</time>
      </trkpt>
      <trkpt lat="44.23632" lon="6.07749">
        <ele>1194.4</ele>
        <time>2024-11-03T15:01:09.804Z</time>
      </trkpt>
      <trkpt lat="44.23635" lon="6.07745">
        <ele>1193.9</ele>
        <time>2024-11-03T15:01:18.182Z</time>
      </trkpt>
      <trkpt lat="44.23641" lon="6.07736">
        <ele>1193.1</ele>
        <time>2024-11-03T15:01:34.494Z</time>
      </trkpt>
      <trkpt lat="44.23646" lon="6.07733">
        <ele>1192.3</ele>
        <time>2024-11-03T15:01:44.573Z</time>
      </trkpt>
      <trkpt lat="44.23651" lon="6.07729">
        <ele>1191.7</ele>
        <time>2024-11-03T15:01:55.246Z</time>
      </trkpt>
      <trkpt lat="44.23658" lon="6.07726">
        <ele>1190.8</ele>
        <time>2024-11-03T15:02:08.807Z</time>
      </trkpt>
      <trkpt lat="44.23663" lon="6.07722">
        <ele>1190.5</ele>
        <time>2024-11-03T15:02:19.480Z</time>
      </trkpt>
      <trkpt lat="44.23668" lon="6.07718">
        <ele>1189.8</ele>
        <time>2024-11-03T15:02:30.153Z</time>
      </trkpt>
      <trkpt lat="44.23673" lon="6.07714">
        <ele>1188.9</ele>
        <time>2024-11-03T15:02:40.826Z</time>
      </trkpt>
      <trkpt lat="44.23678" lon="6.0771">
        <ele>1188</ele>
        <time>2024-11-03T15:02:51.498Z</time>
      </trkpt>
      <trkpt lat="44.23683" lon="6.07707">
        <ele>1187.1</ele>
        <time>2024-11-03T15:03:01.578Z</time>
      </trkpt>
      <trkpt lat="44.23687" lon="6.07705">
        <ele>1186.3</ele>
        <time>2024-11-03T15:03:09.446Z</time>
      </trkpt>
      <trkpt lat="44.23692" lon="6.07702">
        <ele>1185.4</ele>
        <time>2024-11-03T15:03:19.525Z</time>
      </trkpt>
      <trkpt lat="44.23696" lon="6.07699">
        <ele>1184.8</ele>
        <time>2024-11-03T15:03:27.935Z</time>
      </trkpt>
      <trkpt lat="44.23703" lon="6.07695">
        <ele>1183.8</ele>
        <time>2024-11-03T15:03:41.943Z</time>
      </trkpt>
      <trkpt lat="44.23709" lon="6.0769">
        <ele>1182.8</ele>
        <time>2024-11-03T15:03:54.884Z</time>
      </trkpt>
      <trkpt lat="44.23716" lon="6.07693">
        <ele>1181.9</ele>
        <time>2024-11-03T15:04:08.445Z</time>
      </trkpt>
      <trkpt lat="44.23722" lon="6.07696">
        <ele>1180.9</ele>
        <time>2024-11-03T15:04:20.248Z</time>
      </trkpt>
      <trkpt lat="44.23728" lon="6.07699">
        <ele>1179.5</ele>
        <time>2024-11-03T15:04:32.052Z</time>
      </trkpt>
      <trkpt lat="44.23734" lon="6.07702">
        <ele>1178</ele>
        <time>2024-11-03T15:04:43.855Z</time>
      </trkpt>
      <trkpt lat="44.23738" lon="6.07707">
        <ele>1176.9</ele>
        <time>2024-11-03T15:04:53.799Z</time>
      </trkpt>
      <trkpt lat="44.23741" lon="6.07712">
        <ele>1176.1</ele>
        <time>2024-11-03T15:05:02.452Z</time>
      </trkpt>
      <trkpt lat="44.23746" lon="6.07717">
        <ele>1174.9</ele>
        <time>2024-11-03T15:05:13.843Z</time>
      </trkpt>
      <trkpt lat="44.23751" lon="6.07722">
        <ele>1173.8</ele>
        <time>2024-11-03T15:05:25.234Z</time>
      </trkpt>
      <trkpt lat="44.23756" lon="6.07726">
        <ele>1172.6</ele>
        <time>2024-11-03T15:05:35.907Z</time>
      </trkpt>
      <trkpt lat="44.23761" lon="6.07731">
        <ele>1171.4</ele>
        <time>2024-11-03T15:05:47.298Z</time>
      </trkpt>
      <trkpt lat="44.23765" lon="6.07736">
        <ele>1170.3</ele>
        <time>2024-11-03T15:05:57.242Z</time>
      </trkpt>
      <trkpt lat="44.23769" lon="6.07741">
        <ele>1169.2</ele>
        <time>2024-11-03T15:06:07.186Z</time>
      </trkpt>
      <trkpt lat="44.23773" lon="6.07745">
        <ele>1168.2</ele>
        <time>2024-11-03T15:06:16.299Z</time>
      </trkpt>
      <trkpt lat="44.23777" lon="6.0775">
        <ele>1167.1</ele>
        <time>2024-11-03T15:06:26.243Z</time>
      </trkpt>
      <trkpt lat="44.23784" lon="6.07757">
        <ele>1165</ele>
        <time>2024-11-03T15:06:42.191Z</time>
      </trkpt>
      <trkpt lat="44.2379" lon="6.07763">
        <ele>1163.5</ele>
        <time>2024-11-03T15:06:55.860Z</time>
      </trkpt>
      <trkpt lat="44.23796" lon="6.07769">
        <ele>1162.3</ele>
        <time>2024-11-03T15:07:09.529Z</time>
      </trkpt>
      <trkpt lat="44.23804" lon="6.07774">
        <ele>1161.4</ele>
        <time>2024-11-03T15:07:25.762Z</time>
      </trkpt>
      <trkpt lat="44.23811" lon="6.07778">
        <ele>1160.2</ele>
        <time>2024-11-03T15:07:39.770Z</time>
      </trkpt>
      <trkpt lat="44.23815" lon="6.07781">
        <ele>1159</ele>
        <time>2024-11-03T15:07:48.180Z</time>
      </trkpt>
      <trkpt lat="44.23819" lon="6.07784">
        <ele>1158</ele>
        <time>2024-11-03T15:07:56.589Z</time>
      </trkpt>
      <trkpt lat="44.23824" lon="6.07789">
        <ele>1156.9</ele>
        <time>2024-11-03T15:08:07.980Z</time>
      </trkpt>
      <trkpt lat="44.23829" lon="6.07794">
        <ele>1156</ele>
        <time>2024-11-03T15:08:19.371Z</time>
      </trkpt>
      <trkpt lat="44.23835" lon="6.07797">
        <ele>1155.4</ele>
        <time>2024-11-03T15:08:31.174Z</time>
      </trkpt>
      <trkpt lat="44.23842" lon="6.07799">
        <ele>1154.2</ele>
        <time>2024-11-03T15:08:44.406Z</time>
      </trkpt>
      <trkpt lat="44.23848" lon="6.078">
        <ele>1153.2</ele>
        <time>2024-11-03T15:08:55.597Z</time>
      </trkpt>
      <trkpt lat="44.23853" lon="6.07802">
        <ele>1152.3</ele>
        <time>2024-11-03T15:09:05.230Z</time>
      </trkpt>
      <trkpt lat="44.23857" lon="6.07804">
        <ele>1151.7</ele>
        <time>2024-11-03T15:09:13.098Z</time>
      </trkpt>
      <trkpt lat="44.23858" lon="6.07812">
        <ele>1151.1</ele>
        <time>2024-11-03T15:09:23.873Z</time>
      </trkpt>
      <trkpt lat="44.23859" lon="6.0782">
        <ele>1150.7</ele>
        <time>2024-11-03T15:09:34.648Z</time>
      </trkpt>
      <trkpt lat="44.23859" lon="6.0783">
        <ele>1150.2</ele>
        <time>2024-11-03T15:09:47.916Z</time>
      </trkpt>
      <trkpt lat="44.23858" lon="6.07839">
        <ele>1149.4</ele>
        <time>2024-11-03T15:10:00.000Z</time>
      </trkpt>
    </trkseg>
  </trk>
</gpx>